Montezuma, Iowa
Current Conditions -  °F | °C
As of 11:15 PM on Friday 28 Nov 2014 (Local Time) from KGGI Reporting Station
Haze Haze  
Wind Chill: 19°   Ceiling: Unl
Heat Index: 28°   Visibility: 5mi
Dew Point: 27°   Wind: 9mph
Humidity: 94%   Direction: 100°E
Pressure: 29.69"   Gusts: NA
Location:  41.59°N, 92.53°W
Report Text: KGGI 290515Z AUTO 10008KT 5SM BR CLR M02/M03 A2969 RMK AO2 T10211030
Loading
Personal Weather Stations






























Interactive Weather Map New forecast layout! Learn more

10-Day Weather Forecast

Advertisements
Track Severe Weather on mobile